createdAt,value
2022-11-28T06:21:06.179Z,8.20
2022-11-28T06:26:10.650Z,8.10
2022-11-28T06:31:17.306Z,8.10
2022-11-28T06:36:20.174Z,8.10
2022-11-28T06:41:23.195Z,8.20
2022-11-28T06:46:25.181Z,8.20
2022-11-28T06:51:27.103Z,8.20
2022-11-28T06:56:28.851Z,8.20
2022-11-28T07:01:32.080Z,8.20
2022-11-28T07:06:34.264Z,8.30
2022-11-28T07:11:36.125Z,8.30
2022-11-28T07:16:38.135Z,8.30
2022-11-28T07:21:40.090Z,8.30
2022-11-28T07:26:42.223Z,8.30
2022-11-28T07:31:44.664Z,8.30
2022-11-28T07:36:46.514Z,8.30
2022-11-28T07:41:48.299Z,8.30
2022-11-28T07:46:50.339Z,8.40
2022-11-28T07:51:52.277Z,8.40
2022-11-28T08:02:16.114Z,8.40
2022-11-28T08:07:18.065Z,8.40
2022-11-28T08:12:19.927Z,8.50
2022-11-28T08:17:22.105Z,8.50
2022-11-28T08:22:23.870Z,8.50
2022-11-28T08:27:25.659Z,8.50
2022-11-28T08:32:29.525Z,8.50
2022-11-28T08:37:31.314Z,8.60
2022-11-28T08:42:33.239Z,8.60
2022-11-28T08:47:35.090Z,8.60
2022-11-28T08:52:36.883Z,8.60
2022-11-28T08:57:38.724Z,8.60
2022-11-28T09:02:40.570Z,8.70
2022-11-28T09:07:42.418Z,8.70
2022-11-28T09:12:44.276Z,8.70
2022-11-28T09:17:46.665Z,8.80
2022-11-28T09:22:48.526Z,8.80
2022-11-28T09:27:50.363Z,8.80
2022-11-28T09:32:52.222Z,8.90
2022-11-28T09:37:53.990Z,8.90
2022-11-28T09:42:56.737Z,8.90
2022-11-28T09:48:05.934Z,8.90
2022-11-28T09:53:35.787Z,9.00
2022-11-28T09:58:58.934Z,9.00
2022-11-28T10:04:22.196Z,9.00
2022-11-28T10:09:34.682Z,9.10
2022-11-28T10:14:56.604Z,9.10
2022-11-28T10:20:09.847Z,9.20
2022-11-28T10:25:18.475Z,9.20
2022-11-28T10:30:20.388Z,9.30
2022-11-28T10:35:34.348Z,9.30
2022-11-28T10:40:50.198Z,9.30
2022-11-28T10:46:18.322Z,9.30
2022-11-28T10:51:24.082Z,9.30
2022-11-28T10:56:43.526Z,9.40
2022-11-28T11:01:50.011Z,9.40
2022-11-28T11:07:14.873Z,9.40
2022-11-28T11:12:32.329Z,9.50
2022-11-28T11:17:37.782Z,9.50
2022-11-28T11:22:39.615Z,9.50
2022-11-28T11:27:52.316Z,9.60
2022-11-28T11:32:55.966Z,9.60
2022-11-28T11:38:20.595Z,9.60
2022-11-28T11:43:26.821Z,9.70
2022-11-28T11:48:43.335Z,9.70
2022-11-28T11:53:45.350Z,9.70
2022-11-28T11:58:51.621Z,9.80
2022-11-28T12:03:57.082Z,9.80
2022-11-28T12:09:08.575Z,9.80
2022-11-28T12:14:24.184Z,9.80
2022-11-28T12:19:36.995Z,9.90
2022-11-28T12:25:18.907Z,9.90
2022-11-28T12:30:30.914Z,9.90
2022-11-28T12:35:44.182Z,10.00
2022-11-28T12:40:59.299Z,10.00
2022-11-28T12:46:34.650Z,10.00
2022-11-28T12:51:55.445Z,10.10
2022-11-28T12:57:34.661Z,10.10
2022-11-28T13:02:45.590Z,10.20
2022-11-28T13:07:58.162Z,10.20
2022-11-28T13:13:12.245Z,10.20
2022-11-28T13:18:29.300Z,10.20
2022-11-28T13:23:50.137Z,10.30
2022-11-28T13:29:06.600Z,10.30
2022-11-28T13:34:14.552Z,10.30
2022-11-28T13:40:00.995Z,10.30
2022-11-28T13:45:31.654Z,10.30
2022-11-28T13:50:37.260Z,10.30
2022-11-28T13:55:39.217Z,10.30
2022-11-28T14:00:41.091Z,10.30
2022-11-28T14:05:43.674Z,10.40
2022-11-28T14:11:07.216Z,10.40
2022-11-28T14:16:27.507Z,10.40
2022-11-28T14:21:52.128Z,10.40
2022-11-28T14:26:59.906Z,10.40
2022-11-28T14:37:28.568Z,10.40
2022-11-28T14:42:58.947Z,10.50
2022-11-28T14:48:23.475Z,10.50
2022-11-28T14:53:34.727Z,10.50
2022-11-28T14:58:36.686Z,10.50
2022-11-28T15:03:58.679Z,10.50
2022-11-28T15:09:04.760Z,10.50
2022-11-28T15:14:20.176Z,10.50
2022-11-28T15:19:45.221Z,10.50
2022-11-28T15:24:52.047Z,10.50
2022-11-28T15:30:01.247Z,10.40
2022-11-28T15:35:09.236Z,10.40
2022-11-28T15:40:21.193Z,10.30
2022-11-28T15:45:29.293Z,10.30
2022-11-28T15:50:32.651Z,10.30
2022-11-28T15:55:34.598Z,10.20
2022-11-28T16:00:37.255Z,10.20
2022-11-28T16:05:39.289Z,10.20
2022-11-28T16:10:43.926Z,10.10
2022-11-28T16:15:49.877Z,10.10
2022-11-28T16:20:52.333Z,10.00
2022-11-28T16:26:26.521Z,10.00
2022-11-28T16:31:29.533Z,9.90
2022-11-28T16:36:42.052Z,9.90
2022-11-28T16:41:54.669Z,9.90
2022-11-28T16:46:57.838Z,9.80
2022-11-28T16:52:20.980Z,9.80
2022-11-28T16:57:26.548Z,9.80
2022-11-28T17:02:32.029Z,9.70
2022-11-28T17:07:33.939Z,9.70
2022-11-28T17:12:39.125Z,9.70
2022-11-28T17:17:41.215Z,9.60
2022-11-28T17:22:45.499Z,9.60
2022-11-28T23:35:51.773Z,7.90
